This is the latest recevied weather packets stored in our database for station/object DG1GMY-10. If no packets are shown the sender has not sent any weather packets the latest 10 day(s).
| Time | Temp. | Humidity | Pressure | Rain* | Wind** | Luminosity | Snow |
|---|---|---|---|---|---|---|---|
| 1777492325 | 14.44° C | 29% | 1023.5 hPa | - | - | - | - |
| 1777488725 | 16.67° C | 26% | 1023 hPa | - | - | - | - |
| 1777485125 | 21.67° C | 21% | 1022 hPa | - | - | - | - |
| 1777481525 | 36.67° C | 11% | 1021.6 hPa | - | - | - | - |
| 1777477925 | 39.44° C | 11% | 1021.3 hPa | - | - | - | - |
| 1777474324 | 37.22° C | 13% | 1021.3 hPa | - | - | - | - |
| 1777470724 | 32.78° C | 17% | 1021.2 hPa | - | - | - | - |
| 1777467124 | 26.67° C | 26% | 1021.4 hPa | - | - | - | - |
| 1777463524 | 20.56° C | 38% | 1021.7 hPa | - | - | - | - |
| 1777459924 | 18.89° C | 40% | 1021.8 hPa | - | - | - | - |
| 1777456324 | 17.78° C | 48% | 1021.9 hPa | - | - | - | - |
| 1777452723 | 13.89° C | 46% | 1022.1 hPa | - | - | - | - |
| 1777449123 | 12.78° C | 51% | 1022.2 hPa | - | - | - | - |
| 1777445523 | 11.11° C | 55% | 1022.2 hPa | - | - | - | - |
| 1777441923 | 9.44° C | 57% | 1021.8 hPa | - | - | - | - |
| 1777438323 | 8.89° C | 58% | 1021.2 hPa | - | - | - | - |
| 1777434723 | 9.44° C | 58% | 1020.7 hPa | - | - | - | - |
| 1777431123 | 10° C | 57% | 1020.4 hPa | - | - | - | - |
| 1777427523 | 11.11° C | 55% | 1019.9 hPa | - | - | - | - |
| 1777423923 | 12.78° C | 53% | 1019.7 hPa | - | - | - | - |
| 1777420323 | 12.78° C | 54% | 1019.6 hPa | - | - | - | - |
| 1777416723 | 13.89° C | 52% | 1019.7 hPa | - | - | - | - |
| 1777413122 | 15° C | 47% | 1019.2 hPa | - | - | - | - |
| 1777409522 | 16.11° C | 41% | 1018.7 hPa | - | - | - | - |
| 1777405922 | 16.11° C | 43% | 1018.5 hPa | - | - | - | - |
* Rain since midnight (hover to see other rain measurements)
** Current wind speed in m/s (hover to see current wind gust speed)